Terminal Aerodrome Forecast
Issued by NWS Shreveport, LA

Home | Current Version | Previous Version | Text Only | Print | Product List | Glossary On
Versions: 1 2 3 4 5 6 7 8 9 10 11 12 13 14 15 16 17 18 19 20 21 22 23 24
000
FTUS44 KSHV 271744
TAFMLU
TAF
KMLU 271744Z 2718/2818 18006KT P6SM FEW020 OVC100
     FM272100 17005KT P6SM VCTS SCT030CB BKN100 BKN250
     FM280200 VRB03KT P6SM FEW100 SCT250
     FM281000 00000KT 2SM BR SCT010
     FM281500 17004KT P6SM SCT015 BKN100=

USA.gov is the U.S. government's official web portal to all federal, state and local government web resources and services.